Time;durP1;ratioP1;P1;durP2;ratioP2;P2;SDS_P1;SDS_P2;PMS_P1;PMS_P2;Temp;Humidity;BMP_temperature;BMP_pressure;BME280_temperature;BME280_humidity;BME280_pressure;Samples;Min_cycle;Max_cycle;Signal;HPM_P1;HPM_P2
2024/01/15 00:02:13;;;;;;;93.55;54.90;;;14.70;61.50;;;;;;4883986;28;94919;-44
2024/01/15 00:04:40;;;;;;;94.22;54.88;;;14.70;61.60;;;;;;4883041;28;95647;-44
2024/01/15 00:07:09;;;;;;;92.93;54.63;;;14.60;61.60;;;;;;4887433;28;94695;-43
2024/01/15 00:09:35;;;;;;;94.93;55.20;;;14.60;61.40;;;;;;4881713;28;94490;-43
2024/01/15 00:12:01;;;;;;;95.60;55.13;;;14.60;61.50;;;;;;4876615;28;94746;-44
2024/01/15 00:14:27;;;;;;;93.57;54.83;;;14.60;61.60;;;;;;4884620;28;95393;-44
2024/01/15 00:16:54;;;;;;;94.05;54.60;;;14.60;61.50;;;;;;4881217;28;93804;-44
2024/01/15 00:19:21;;;;;;;93.15;54.65;;;14.60;61.50;;;;;;4882736;28;95622;-44
2024/01/15 00:21:47;;;;;;;93.43;54.63;;;14.60;61.50;;;;;;4885824;28;94604;-44
2024/01/15 00:24:13;;;;;;;93.53;54.63;;;14.60;61.70;;;;;;4881442;28;95308;-44
2024/01/15 00:26:39;;;;;;;93.43;54.45;;;14.60;61.70;;;;;;4882108;28;94205;-43
2024/01/15 00:29:07;;;;;;;93.28;54.25;;;14.60;61.50;;;;;;4881255;28;95313;-43
2024/01/15 00:31:32;;;;;;;92.45;54.20;;;14.60;61.60;;;;;;4883387;28;94778;-44
2024/01/15 00:33:58;;;;;;;92.68;54.45;;;14.50;61.40;;;;;;4885759;28;94341;-44
2024/01/15 00:36:23;;;;;;;92.50;54.60;;;14.50;61.40;;;;;;4885205;28;94909;-42
2024/01/15 00:38:49;;;;;;;93.22;54.65;;;14.50;61.30;;;;;;4881936;28;94737;-44
2024/01/15 00:41:15;;;;;;;93.32;54.47;;;14.50;61.20;;;;;;4876866;28;94500;-43
2024/01/15 00:43:41;;;;;;;91.60;53.80;;;14.50;61.10;;;;;;4881873;28;94347;-42
2024/01/15 00:46:07;;;;;;;93.32;54.55;;;14.50;61.10;;;;;;4883468;28;94057;-43
2024/01/15 00:48:32;;;;;;;92.68;54.22;;;14.40;61.00;;;;;;4875287;28;95754;-43
2024/01/15 00:50:58;;;;;;;93.13;54.30;;;14.40;61.00;;;;;;4880185;28;95317;-44
2024/01/15 00:53:25;;;;;;;92.35;53.97;;;14.40;60.90;;;;;;4880380;28;93900;-44
2024/01/15 00:55:51;;;;;;;93.75;54.58;;;14.40;61.00;;;;;;4879347;28;94659;-44
2024/01/15 00:58:16;;;;;;;92.57;54.03;;;14.40;61.00;;;;;;4884942;28;94435;-46
2024/01/15 01:00:42;;;;;;;93.32;54.40;;;14.40;61.00;;;;;;4877184;28;94413;-41
2024/01/15 01:03:08;;;;;;;91.97;53.92;;;14.30;60.90;;;;;;4877569;28;93919;-39
2024/01/15 01:05:34;;;;;;;91.68;53.95;;;14.40;60.90;;;;;;4883493;28;93805;-37
2024/01/15 01:08:00;;;;;;;92.88;54.15;;;14.40;60.80;;;;;;4881443;28;94087;-39
2024/01/15 01:10:27;;;;;;;92.25;53.95;;;14.30;60.70;;;;;;4881441;28;95203;-39
2024/01/15 01:12:52;;;;;;;92.78;54.03;;;14.30;60.40;;;;;;4880681;28;95253;-38
2024/01/15 01:15:18;;;;;;;91.80;53.95;;;14.30;60.60;;;;;;4875276;28;94318;-38
2024/01/15 01:17:44;;;;;;;91.07;53.25;;;14.30;60.60;;;;;;4880389;28;94599;-37
2024/01/15 01:20:10;;;;;;;91.53;53.58;;;14.30;60.60;;;;;;4880569;28;98518;-39
2024/01/15 01:22:36;;;;;;;91.18;53.75;;;14.30;60.60;;;;;;4882097;28;94592;-38
2024/01/15 01:25:02;;;;;;;91.88;53.63;;;14.20;60.50;;;;;;4884495;28;94074;-38
2024/01/15 01:27:28;;;;;;;92.30;54.20;;;14.20;60.50;;;;;;4881902;28;94269;-38
2024/01/15 01:29:53;;;;;;;92.05;53.88;;;14.20;60.60;;;;;;4880592;28;94046;-37
2024/01/15 01:32:19;;;;;;;91.70;54.03;;;14.20;60.50;;;;;;4880572;28;94034;-38
2024/01/15 01:34:45;;;;;;;91.47;53.65;;;14.20;60.50;;;;;;4880916;28;94203;-38
2024/01/15 01:37:14;;;;;;;90.85;53.58;;;14.20;60.50;;;;;;4878574;28;95512;-38
2024/01/15 01:39:40;;;;;;;91.88;53.83;;;14.20;60.50;;;;;;4881959;28;96190;-38
2024/01/15 01:42:06;;;;;;;91.15;53.38;;;14.20;61.20;;;;;;4881338;28;94068;-38
2024/01/15 01:44:32;;;;;;;91.75;53.55;;;14.20;60.50;;;;;;4878813;28;94755;-38
2024/01/15 01:46:59;;;;;;;91.68;53.85;;;14.10;60.40;;;;;;4881228;28;98248;-39
2024/01/15 01:49:26;;;;;;;91.07;53.22;;;14.10;60.40;;;;;;4876304;28;94581;-37
2024/01/15 01:51:52;;;;;;;92.00;53.25;;;14.10;60.50;;;;;;4883637;28;94432;-37
2024/01/15 01:54:20;;;;;;;93.20;53.75;;;14.10;60.40;;;;;;4878350;28;97537;-38
2024/01/15 01:56:48;;;;;;;90.40;53.40;;;14.10;60.60;;;;;;4876984;28;94481;-38
2024/01/15 01:59:14;;;;;;;91.43;53.65;;;14.10;60.50;;;;;;4876976;28;95829;-37
2024/01/15 02:01:41;;;;;;;90.75;53.45;;;14.10;60.60;;;;;;4873597;28;95033;-37
2024/01/15 02:04:08;;;;;;;91.35;53.92;;;14.10;60.50;;;;;;4880832;28;94066;-38
2024/01/15 02:06:37;;;;;;;93.15;53.83;;;14.10;60.70;;;;;;4878713;28;94569;-38
2024/01/15 02:09:05;;;;;;;91.75;53.67;;;14.10;60.80;;;;;;4878786;28;94624;-37
2024/01/15 02:11:31;;;;;;;91.50;53.83;;;14.10;60.90;;;;;;4876639;28;94456;-38
2024/01/15 02:13:57;;;;;;;90.82;53.33;;;14.10;60.90;;;;;;4879322;28;94099;-37
2024/01/15 02:16:22;;;;;;;92.10;53.58;;;14.00;61.60;;;;;;4880049;28;94054;-38
2024/01/15 02:18:48;;;;;;;90.63;53.53;;;14.00;61.10;;;;;;4872993;28;93314;-43
2024/01/15 02:21:14;;;;;;;90.80;53.35;;;14.00;61.00;;;;;;4876269;28;95116;-43
2024/01/15 02:23:39;;;;;;;91.10;53.35;;;14.00;61.00;;;;;;4878826;28;95228;-43
2024/01/15 02:26:06;;;;;;;90.60;53.55;;;14.00;61.20;;;;;;4878129;28;95608;-43
2024/01/15 02:28:32;;;;;;;92.20;53.38;;;14.00;61.10;;;;;;4881145;28;95411;-43
2024/01/15 02:30:58;;;;;;;89.88;53.03;;;14.00;61.20;;;;;;4878686;28;94079;-42
2024/01/15 02:33:24;;;;;;;90.18;53.45;;;14.00;61.20;;;;;;4876358;28;96013;-44
2024/01/15 02:35:50;;;;;;;91.50;53.67;;;14.00;61.10;;;;;;4877917;28;94870;-44
2024/01/15 02:38:16;;;;;;;90.65;53.25;;;14.00;61.20;;;;;;4879455;28;94454;-42
2024/01/15 02:40:42;;;;;;;91.60;53.58;;;13.90;61.10;;;;;;4882442;28;95322;-44
2024/01/15 02:43:08;;;;;;;91.25;53.42;;;14.00;61.20;;;;;;4880325;28;93114;-44
2024/01/15 02:45:34;;;;;;;90.63;53.13;;;13.90;61.10;;;;;;4879840;28;93975;-42
2024/01/15 02:48:00;;;;;;;89.75;52.90;;;13.90;61.10;;;;;;4877894;28;94487;-43
2024/01/15 02:50:26;;;;;;;92.32;53.58;;;13.90;61.20;;;;;;4877858;28;95336;-43
2024/01/15 02:52:52;;;;;;;90.18;53.10;;;13.90;61.10;;;;;;4877061;28;93941;-43
2024/01/15 02:55:17;;;;;;;89.28;53.00;;;13.90;61.30;;;;;;4876898;28;94226;-45
2024/01/15 02:57:43;;;;;;;90.95;53.22;;;13.90;61.40;;;;;;4875442;28;94162;-43
2024/01/15 03:00:09;;;;;;;90.82;53.13;;;13.90;61.20;;;;;;4873561;28;94109;-43
2024/01/15 03:02:39;;;;;;;90.80;53.05;;;13.90;61.20;;;;;;4879617;28;94115;-43
2024/01/15 03:05:07;;;;;;;90.60;52.90;;;13.90;61.20;;;;;;4880023;28;94161;-43
2024/01/15 03:07:33;;;;;;;90.13;53.13;;;13.80;61.30;;;;;;4882477;28;93485;-43
2024/01/15 03:09:59;;;;;;;90.25;53.10;;;13.80;61.40;;;;;;4883857;28;94515;-43
2024/01/15 03:12:24;;;;;;;90.18;52.90;;;13.80;61.40;;;;;;4882414;28;94316;-46
2024/01/15 03:14:50;;;;;;;90.70;53.05;;;13.80;61.30;;;;;;4878566;28;96564;-44
2024/01/15 03:17:16;;;;;;;90.32;52.97;;;13.80;61.40;;;;;;4879186;28;94541;-47
2024/01/15 03:19:41;;;;;;;90.32;53.28;;;13.80;61.40;;;;;;4880258;28;94363;-44
2024/01/15 03:22:08;;;;;;;89.82;52.85;;;13.80;61.30;;;;;;4878395;28;94148;-44
2024/01/15 03:24:34;;;;;;;88.60;52.33;;;13.80;61.30;;;;;;4880524;28;94708;-54
2024/01/15 03:27:00;;;;;;;89.50;52.50;;;13.70;61.20;;;;;;4880496;28;94240;-44
2024/01/15 03:29:26;;;;;;;89.38;52.70;;;13.70;61.30;;;;;;4879255;28;95215;-44
2024/01/15 03:31:52;;;;;;;90.22;53.05;;;13.80;61.30;;;;;;4885467;28;94476;-43
2024/01/15 03:34:18;;;;;;;89.05;52.17;;;13.80;61.20;;;;;;4889388;28;96113;-44
2024/01/15 03:36:44;;;;;;;88.88;52.67;;;13.70;61.20;;;;;;4880715;28;94598;-44
2024/01/15 03:39:09;;;;;;;92.75;52.58;;;13.70;61.20;;;;;;4882250;28;97200;-44
2024/01/15 03:41:35;;;;;;;89.68;52.63;;;13.70;61.20;;;;;;4885004;28;96372;-43
2024/01/15 03:44:01;;;;;;;88.63;52.45;;;13.70;61.20;;;;;;4877929;28;94325;-42
2024/01/15 03:46:27;;;;;;;89.45;52.85;;;13.70;61.20;;;;;;4880611;28;94387;-44
2024/01/15 03:48:53;;;;;;;90.50;52.70;;;13.70;61.30;;;;;;4880755;28;94725;-44
2024/01/15 03:51:19;;;;;;;90.07;52.28;;;13.70;61.40;;;;;;4880875;28;94275;-44
2024/01/15 03:53:44;;;;;;;88.88;52.33;;;13.70;61.50;;;;;;4878418;28;99559;-44
2024/01/15 03:56:10;;;;;;;89.18;52.47;;;13.70;61.40;;;;;;4881085;28;95125;-44
2024/01/15 03:58:36;;;;;;;89.07;52.20;;;13.70;61.40;;;;;;4880227;28;94409;-44
2024/01/15 04:01:02;;;;;;;90.85;52.67;;;13.70;61.70;;;;;;4878137;28;95120;-43
2024/01/15 04:03:27;;;;;;;88.20;52.05;;;13.70;61.70;;;;;;4879085;28;95354;-42
2024/01/15 04:05:53;;;;;;;88.28;52.50;;;13.70;61.80;;;;;;4880470;28;95103;-41
2024/01/15 04:08:19;;;;;;;87.95;52.45;;;13.70;61.70;;;;;;4881328;28;94639;-43
2024/01/15 04:10:44;;;;;;;88.00;52.33;;;13.70;61.80;;;;;;4885512;28;94226;-44
2024/01/15 04:13:10;;;;;;;88.38;52.15;;;13.70;61.80;;;;;;4878857;28;94672;-42
2024/01/15 04:15:36;;;;;;;88.10;52.10;;;13.70;61.80;;;;;;4875279;28;95992;-43
2024/01/15 04:18:02;;;;;;;88.35;52.53;;;13.70;61.70;;;;;;4876289;28;94482;-43
2024/01/15 04:20:28;;;;;;;91.60;52.70;;;13.70;61.70;;;;;;4881238;28;93659;-44
2024/01/15 04:22:54;;;;;;;88.05;52.45;;;13.60;61.70;;;;;;4882257;28;95337;-42
2024/01/15 04:25:20;;;;;;;88.55;52.50;;;13.60;61.70;;;;;;4873617;28;95473;-43
2024/01/15 04:27:45;;;;;;;87.40;52.15;;;13.60;61.70;;;;;;4883501;28;94315;-43
2024/01/15 04:30:11;;;;;;;89.13;52.13;;;13.60;61.80;;;;;;4875184;28;94186;-44
2024/01/15 04:32:37;;;;;;;89.18;52.30;;;13.60;61.60;;;;;;4878401;28;95498;-42
2024/01/15 04:35:09;;;;;;;88.05;52.00;;;13.60;61.50;;;;;;4881602;28;95406;-42
2024/01/15 04:37:34;;;;;;;87.75;52.28;;;13.50;61.30;;;;;;4883931;28;94184;-42
2024/01/15 04:40:00;;;;;;;89.05;52.67;;;13.50;61.40;;;;;;4877923;28;94697;-43
2024/01/15 04:42:26;;;;;;;88.20;52.08;;;13.50;61.50;;;;;;4880537;28;95108;-42
2024/01/15 04:44:52;;;;;;;88.53;51.78;;;13.40;61.10;;;;;;4873791;28;93927;-44
2024/01/15 04:47:17;;;;;;;88.05;51.72;;;13.50;61.50;;;;;;4875947;28;94965;-43
2024/01/15 04:49:43;;;;;;;88.10;52.15;;;13.50;61.50;;;;;;4883535;28;95035;-42
2024/01/15 04:52:10;;;;;;;88.53;52.20;;;13.50;61.50;;;;;;4879617;28;95503;-43
2024/01/15 04:54:36;;;;;;;89.13;52.25;;;13.50;61.20;;;;;;4880867;28;97161;-44
2024/01/15 04:57:02;;;;;;;90.35;52.60;;;13.50;61.20;;;;;;4877305;28;95204;-43
2024/01/15 04:59:28;;;;;;;88.70;52.25;;;13.50;61.40;;;;;;4874503;28;96770;-43
2024/01/15 05:01:54;;;;;;;89.13;52.35;;;13.50;61.30;;;;;;4874817;28;94925;-43
2024/01/15 05:04:20;;;;;;;88.32;52.13;;;13.50;61.20;;;;;;4875162;28;96109;-45
2024/01/15 05:06:46;;;;;;;87.75;51.95;;;13.50;61.30;;;;;;4878998;28;94694;-44
2024/01/15 05:09:13;;;;;;;87.90;51.92;;;13.40;61.20;;;;;;4881115;28;93844;-43
2024/01/15 05:11:39;;;;;;;88.68;52.15;;;13.40;61.50;;;;;;4875252;28;95935;-43
2024/01/15 05:14:04;;;;;;;88.63;52.10;;;13.40;61.10;;;;;;4876190;28;97267;-44
2024/01/15 05:16:30;;;;;;;89.57;51.88;;;13.40;61.20;;;;;;4867609;28;96440;-42
2024/01/15 05:18:56;;;;;;;90.45;51.97;;;13.50;61.30;;;;;;4876314;28;94474;-43
2024/01/15 05:21:21;;;;;;;88.38;52.17;;;13.40;61.40;;;;;;4875515;28;95364;-44
2024/01/15 05:23:47;;;;;;;89.03;51.83;;;13.40;61.20;;;;;;4879260;28;94778;-44
2024/01/15 05:26:13;;;;;;;87.32;51.70;;;13.40;61.10;;;;;;4874840;28;96219;-44
2024/01/15 05:28:40;;;;;;;88.68;52.33;;;13.30;61.10;;;;;;4880703;28;94630;-43
2024/01/15 05:31:06;;;;;;;88.57;52.00;;;13.40;61.20;;;;;;4875604;28;96472;-43
2024/01/15 05:33:32;;;;;;;87.72;51.63;;;13.40;61.20;;;;;;4876763;28;94786;-43
2024/01/15 05:35:58;;;;;;;88.43;51.83;;;13.40;61.10;;;;;;4880028;28;94456;-42
2024/01/15 05:38:24;;;;;;;87.47;51.45;;;13.40;61.10;;;;;;4878332;28;94683;-44
2024/01/15 05:40:50;;;;;;;87.93;51.65;;;13.30;61.00;;;;;;4879978;28;95860;-44
2024/01/15 05:43:15;;;;;;;89.05;51.72;;;13.30;61.00;;;;;;4880021;28;96721;-44
2024/01/15 05:45:44;;;;;;;87.65;51.05;;;13.30;61.20;;;;;;4880202;28;94867;-43
2024/01/15 05:48:09;;;;;;;89.63;51.90;;;13.30;60.90;;;;;;4881308;28;94911;-44
2024/01/15 05:50:35;;;;;;;88.10;51.90;;;13.30;61.10;;;;;;4877427;28;94337;-43
2024/01/15 05:53:00;;;;;;;87.55;51.75;;;13.30;61.00;;;;;;4874416;28;94555;-43
2024/01/15 05:55:26;;;;;;;88.15;51.92;;;13.30;61.10;;;;;;4885336;28;94725;-43
2024/01/15 05:57:52;;;;;;;88.55;51.75;;;13.30;60.90;;;;;;4878203;28;95173;-44
2024/01/15 06:00:18;;;;;;;88.68;51.45;;;13.30;60.80;;;;;;4882106;28;95613;-44
2024/01/15 06:02:44;;;;;;;89.15;51.83;;;13.30;60.90;;;;;;4877008;28;94651;-43
2024/01/15 06:05:09;;;;;;;89.47;51.55;;;13.20;61.00;;;;;;4876999;28;95853;-44
2024/01/15 06:07:38;;;;;;;87.20;51.45;;;13.20;61.00;;;;;;4879966;28;94427;-42
2024/01/15 06:10:07;;;;;;;89.10;51.95;;;13.20;61.10;;;;;;4875444;28;95834;-42
2024/01/15 06:12:33;;;;;;;89.05;51.65;;;13.10;60.90;;;;;;4879765;28;94394;-43
2024/01/15 06:14:59;;;;;;;87.53;51.47;;;13.20;61.20;;;;;;4876469;28;96085;-42
2024/01/15 06:17:24;;;;;;;88.78;51.70;;;13.20;60.70;;;;;;4876191;28;99748;-44
2024/01/15 06:19:50;;;;;;;88.53;51.58;;;13.10;61.30;;;;;;4877640;28;94847;-43
2024/01/15 06:22:16;;;;;;;89.05;51.80;;;13.10;61.30;;;;;;4876542;28;95629;-41
2024/01/15 06:24:41;;;;;;;91.85;51.70;;;13.10;61.20;;;;;;4879608;28;94980;-43
2024/01/15 06:27:07;;;;;;;90.72;51.78;;;13.10;61.20;;;;;;4877293;28;94405;-43
2024/01/15 06:29:32;;;;;;;88.30;51.85;;;13.20;61.40;;;;;;4874572;28;96540;-43
2024/01/15 06:31:58;;;;;;;87.60;51.60;;;13.10;61.90;;;;;;4879936;28;95851;-43
2024/01/15 06:34:24;;;;;;;87.80;51.50;;;13.20;61.90;;;;;;4876110;28;95232;-43
2024/01/15 06:36:49;;;;;;;87.68;51.83;;;13.10;61.80;;;;;;4881480;28;95064;-43
2024/01/15 06:39:15;;;;;;;87.85;51.58;;;13.10;61.90;;;;;;4878368;28;94795;-43
2024/01/15 06:41:44;;;;;;;89.53;51.78;;;13.10;62.00;;;;;;4882807;28;94485;-43
2024/01/15 06:44:13;;;;;;;89.38;51.95;;;13.10;61.90;;;;;;4876342;28;95853;-43
2024/01/15 06:46:45;;;;;;;88.80;52.17;;;13.10;62.60;;;;;;4875209;28;93579;-44
2024/01/15 06:49:11;;;;;;;90.57;51.85;;;13.10;62.20;;;;;;4881119;28;95804;-44
2024/01/15 06:51:37;;;;;;;89.88;51.60;;;13.10;62.20;;;;;;4882922;28;95557;-43
2024/01/15 06:54:03;;;;;;;89.80;51.78;;;13.10;63.00;;;;;;4883385;28;95367;-44
2024/01/15 06:56:29;;;;;;;87.13;51.47;;;13.10;62.00;;;;;;4883051;28;94992;-43
2024/01/15 06:58:55;;;;;;;88.78;51.67;;;13.00;62.10;;;;;;4878416;28;95312;-43
2024/01/15 07:01:20;;;;;;;90.65;51.97;;;13.00;62.20;;;;;;4877845;28;95693;-44
2024/01/15 07:03:46;;;;;;;89.72;51.42;;;13.00;62.50;;;;;;4877570;28;94750;-43
2024/01/15 07:06:12;;;;;;;92.38;51.97;;;13.00;62.10;;;;;;4880241;28;94678;-41
2024/01/15 07:08:39;;;;;;;90.38;51.53;;;13.00;62.30;;;;;;4880560;28;94704;-44
2024/01/15 07:11:05;;;;;;;87.75;51.75;;;12.90;62.40;;;;;;4881876;28;94576;-44
2024/01/15 07:13:31;;;;;;;89.20;51.75;;;13.00;62.30;;;;;;4881176;28;94925;-44
2024/01/15 07:15:57;;;;;;;91.63;51.67;;;13.00;62.20;;;;;;4876426;28;95004;-43
2024/01/15 07:18:23;;;;;;;91.25;51.55;;;12.90;62.10;;;;;;4882670;28;95466;-43
2024/01/15 07:20:49;;;;;;;89.85;51.83;;;13.00;62.10;;;;;;4880225;28;95416;-44
2024/01/15 07:23:14;;;;;;;89.18;51.60;;;13.00;62.10;;;;;;4885289;28;94609;-44
2024/01/15 07:25:40;;;;;;;88.60;51.45;;;12.90;62.00;;;;;;4881887;28;94771;-43
2024/01/15 07:28:06;;;;;;;88.10;51.25;;;13.00;61.90;;;;;;4883693;28;95758;-43
2024/01/15 07:30:32;;;;;;;87.55;51.35;;;13.00;62.20;;;;;;4881747;28;94851;-44
2024/01/15 07:32:57;;;;;;;87.22;51.38;;;12.90;61.90;;;;;;4885551;28;94529;-41
2024/01/15 07:35:23;;;;;;;89.68;51.42;;;12.90;61.80;;;;;;4882122;28;94025;-44
2024/01/15 07:37:49;;;;;;;88.25;51.13;;;12.90;61.80;;;;;;4882059;28;95839;-44
2024/01/15 07:40:14;;;;;;;86.70;51.10;;;12.90;61.80;;;;;;4884933;28;94590;-44
2024/01/15 07:42:42;;;;;;;87.95;51.85;;;12.90;61.80;;;;;;4886283;28;95879;-44
2024/01/15 07:45:08;;;;;;;87.78;51.22;;;12.90;61.80;;;;;;4876997;28;94440;-44
2024/01/15 07:47:34;;;;;;;87.68;51.45;;;12.90;61.60;;;;;;4880875;28;94613;-44
2024/01/15 07:50:00;;;;;;;86.43;51.17;;;12.90;61.90;;;;;;4878251;28;94567;-45
2024/01/15 07:52:26;;;;;;;89.70;51.95;;;12.90;61.80;;;;;;4879874;28;95566;-44
2024/01/15 07:54:51;;;;;;;86.55;51.33;;;12.90;61.80;;;;;;4885025;28;94685;-44
2024/01/15 07:57:17;;;;;;;87.55;51.55;;;12.90;61.50;;;;;;4880139;28;94385;-46
2024/01/15 07:59:43;;;;;;;88.10;51.78;;;12.80;61.60;;;;;;4878740;28;93538;-43
2024/01/15 08:02:08;;;;;;;87.88;51.40;;;12.80;61.40;;;;;;4880444;28;96168;-44
2024/01/15 08:04:34;;;;;;;89.15;51.20;;;12.80;61.60;;;;;;4879322;28;94413;-44
2024/01/15 08:07:00;;;;;;;89.03;51.38;;;12.80;61.10;;;;;;4880419;28;95549;-44
2024/01/15 08:09:25;;;;;;;87.75;51.28;;;12.80;61.40;;;;;;4878630;28;96146;-46
2024/01/15 08:12:08;;;;;;;87.22;50.85;;;12.70;61.30;;;;;;4881718;28;95060;-46
2024/01/15 08:14:33;;;;;;;86.78;51.28;;;12.80;61.30;;;;;;4879504;28;94459;-46
2024/01/15 08:16:59;;;;;;;90.50;51.75;;;12.80;61.30;;;;;;4875752;28;94758;-47
2024/01/15 08:19:25;;;;;;;86.70;51.10;;;12.70;60.90;;;;;;4879360;28;94285;-47
2024/01/15 08:21:50;;;;;;;86.80;51.28;;;12.70;61.10;;;;;;4883456;28;94969;-38
2024/01/15 08:24:16;;;;;;;88.28;51.42;;;12.70;61.30;;;;;;4879319;28;93868;-38
2024/01/15 08:26:42;;;;;;;87.88;51.22;;;12.70;61.10;;;;;;4885039;28;94582;-37
2024/01/15 08:29:08;;;;;;;86.93;50.88;;;12.70;60.90;;;;;;4877941;28;94230;-39
2024/01/15 08:31:33;;;;;;;87.07;51.17;;;12.70;61.20;;;;;;4882297;28;95413;-38
2024/01/15 08:34:01;;;;;;;87.07;51.40;;;12.70;60.90;;;;;;4881674;28;94957;-39
2024/01/15 08:36:28;;;;;;;87.57;51.60;;;12.70;61.10;;;;;;4881123;28;94275;-38
2024/01/15 08:38:53;;;;;;;87.05;51.22;;;12.70;60.90;;;;;;4879396;28;95435;-39
2024/01/15 08:41:19;;;;;;;86.03;50.97;;;12.70;61.20;;;;;;4882236;28;94427;-37
2024/01/15 08:43:44;;;;;;;89.55;51.05;;;12.70;61.00;;;;;;4878030;28;94261;-38
2024/01/15 08:46:10;;;;;;;88.72;51.60;;;12.60;61.30;;;;;;4884321;28;94167;-40
2024/01/15 08:48:36;;;;;;;88.10;51.65;;;12.60;60.70;;;;;;4881371;28;94584;-38
2024/01/15 08:51:02;;;;;;;86.88;50.88;;;12.60;61.20;;;;;;4878842;28;94113;-37
2024/01/15 08:53:28;;;;;;;87.45;51.78;;;12.70;61.20;;;;;;4884265;28;94203;-38
2024/01/15 08:55:54;;;;;;;88.03;51.38;;;12.70;61.30;;;;;;4878356;28;95642;-39
2024/01/15 08:58:19;;;;;;;86.30;50.88;;;12.70;61.40;;;;;;4872211;28;94446;-39
2024/01/15 09:00:45;;;;;;;87.45;51.00;;;12.60;60.90;;;;;;4883966;28;95469;-39
2024/01/15 09:03:11;;;;;;;86.50;50.92;;;12.60;60.70;;;;;;4879341;28;93997;-39
2024/01/15 09:05:37;;;;;;;88.18;51.13;;;12.60;60.60;;;;;;4883147;28;94049;-37
2024/01/15 09:08:03;;;;;;;87.55;51.00;;;12.60;61.00;;;;;;4880785;28;94346;-38
2024/01/15 09:10:29;;;;;;;87.93;51.15;;;12.70;60.80;;;;;;4877866;28;94878;-40
2024/01/15 09:12:55;;;;;;;86.55;51.13;;;12.60;60.90;;;;;;4882323;28;93789;-39
2024/01/15 09:15:21;;;;;;;86.65;51.17;;;12.70;60.70;;;;;;4875163;28;94330;-38
2024/01/15 09:17:46;;;;;;;86.85;51.00;;;12.70;60.90;;;;;;4883862;28;95001;-39
2024/01/15 09:20:12;;;;;;;87.78;51.05;;;12.60;60.40;;;;;;4878747;28;95567;-39
2024/01/15 09:22:41;;;;;;;86.40;51.28;;;12.70;60.90;;;;;;4881820;28;95229;-40
2024/01/15 09:25:08;;;;;;;86.50;50.95;;;12.70;60.60;;;;;;4879708;28;95130;-38
2024/01/15 09:27:39;;;;;;;87.43;51.28;;;12.70;60.70;;;;;;4879683;28;94423;-39
2024/01/15 09:30:06;;;;;;;86.97;51.17;;;12.70;60.80;;;;;;4871302;28;94099;-36
2024/01/15 09:32:32;;;;;;;87.90;51.25;;;12.70;60.70;;;;;;4884651;28;94782;-39
2024/01/15 09:34:58;;;;;;;88.07;51.28;;;12.70;60.60;;;;;;4884363;28;94142;-38
2024/01/15 09:37:24;;;;;;;88.63;51.17;;;12.70;61.00;;;;;;4878685;28;94211;-37
2024/01/15 09:39:50;;;;;;;86.75;51.05;;;12.70;60.60;;;;;;4882687;28;94790;-41
2024/01/15 09:42:16;;;;;;;87.50;51.05;;;12.70;60.60;;;;;;4878760;28;94159;-38
2024/01/15 09:44:41;;;;;;;86.63;51.05;;;12.70;60.60;;;;;;4884251;28;95456;-38
2024/01/15 09:47:08;;;;;;;85.95;50.97;;;12.70;60.70;;;;;;4882173;28;95217;-38
2024/01/15 09:49:34;;;;;;;85.95;50.78;;;12.70;60.70;;;;;;4882203;28;94077;-38
2024/01/15 09:52:01;;;;;;;86.85;51.58;;;12.70;60.50;;;;;;4879245;28;94302;-39
2024/01/15 09:54:27;;;;;;;87.10;51.03;;;12.70;60.10;;;;;;4875464;28;94166;-38
2024/01/15 09:56:54;;;;;;;88.95;51.65;;;12.70;60.60;;;;;;4874957;28;94562;-39
2024/01/15 09:59:22;;;;;;;86.00;51.40;;;12.70;60.50;;;;;;4874738;28;94188;-39
2024/01/15 10:01:48;;;;;;;87.35;51.25;;;12.70;60.80;;;;;;4879692;28;93546;-38
2024/01/15 10:04:14;;;;;;;89.38;51.53;;;12.70;60.30;;;;;;4877677;28;94191;-38
2024/01/15 10:06:47;;;;;;;88.43;51.55;;;12.70;60.30;;;;;;4880235;28;96024;-39
2024/01/15 10:09:16;;;;;;;87.75;51.45;;;12.70;60.40;;;;;;4870880;28;95888;-39
2024/01/15 10:11:44;;;;;;;90.22;51.35;;;12.80;60.50;;;;;;4871895;28;95053;-38
2024/01/15 10:14:13;;;;;;;90.22;51.55;;;12.80;60.20;;;;;;4872640;28;95150;-38
2024/01/15 10:16:42;;;;;;;88.05;51.53;;;12.80;60.00;;;;;;4872411;28;96334;-38
2024/01/15 10:19:08;;;;;;;87.68;51.38;;;12.80;60.30;;;;;;4881689;28;94274;-39
2024/01/15 10:21:35;;;;;;;89.85;50.80;;;12.80;60.10;;;;;;4878830;28;94256;-39
2024/01/15 10:24:01;;;;;;;88.85;51.03;;;12.80;59.70;;;;;;4876852;28;94656;-39
2024/01/15 10:26:27;;;;;;;91.95;51.53;;;12.90;60.40;;;;;;4878952;28;93859;-40
2024/01/15 10:28:52;;;;;;;88.05;51.28;;;13.00;60.10;;;;;;4878552;28;94493;-36
2024/01/15 10:31:21;;;;;;;89.15;51.08;;;12.90;60.00;;;;;;4884834;28;95280;-38
2024/01/15 10:33:49;;;;;;;90.82;51.55;;;12.90;59.70;;;;;;4880273;28;96218;-34
2024/01/15 10:36:17;;;;;;;86.30;51.03;;;12.90;59.30;;;;;;4880477;28;95508;-35
2024/01/15 10:38:46;;;;;;;88.05;51.00;;;12.80;59.10;;;;;;4874551;28;94633;-35
2024/01/15 10:41:12;;;;;;;90.60;51.35;;;12.80;59.50;;;;;;4880263;28;93967;-35
2024/01/15 10:43:41;;;;;;;89.30;51.15;;;12.80;59.20;;;;;;4878075;28;94713;-34
2024/01/15 10:46:07;;;;;;;89.28;51.55;;;12.90;59.60;;;;;;4882644;28;94672;-33
2024/01/15 10:48:35;;;;;;;91.25;51.78;;;12.90;59.10;;;;;;4879933;28;94162;-35
2024/01/15 10:51:03;;;;;;;92.22;51.95;;;12.90;59.20;;;;;;4884095;28;93422;-34
2024/01/15 10:53:31;;;;;;;91.05;53.40;;;12.90;58.80;;;;;;4870084;28;94305;-44
2024/01/15 10:55:58;;;;;;;92.65;53.97;;;12.90;59.60;;;;;;4874996;28;94186;-54
2024/01/15 10:58:27;;;;;;;95.20;54.92;;;13.00;60.00;;;;;;4875464;28;95496;-45
2024/01/15 11:00:53;;;;;;;99.35;54.92;;;13.00;60.10;;;;;;4874801;28;96256;-45
2024/01/15 11:03:19;;;;;;;91.50;54.33;;;13.10;60.00;;;;;;4880371;28;94449;-44
2024/01/15 11:05:45;;;;;;;92.05;54.13;;;13.20;59.70;;;;;;4877802;28;96624;-42
2024/01/15 11:08:11;;;;;;;95.78;55.33;;;13.20;59.40;;;;;;4872974;28;95446;-43
2024/01/15 11:10:49;;;;;;;98.18;57.25;;;13.20;59.70;;;;;;4874592;28;95311;-44
2024/01/15 11:13:33;;;;;;;95.95;56.80;;;13.20;59.70;;;;;;4880675;28;94634;-44
2024/01/15 11:16:04;;;;;;;100.00;56.30;;;13.40;59.70;;;;;;4874719;28;94653;-44
2024/01/15 11:19:01;;;;;;;96.47;55.63;;;13.50;59.80;;;;;;4877422;28;94569;-43
2024/01/15 11:21:29;;;;;;;97.25;55.72;;;13.60;59.20;;;;;;4876512;28;94689;-43
2024/01/15 11:23:57;;;;;;;96.70;55.05;;;13.80;59.40;;;;;;4876861;28;95722;-43
2024/01/15 11:26:33;;;;;;;98.47;54.40;;;13.90;59.20;;;;;;4878959;28;95824;-43
2024/01/15 11:29:03;;;;;;;95.40;54.25;;;14.00;58.90;;;;;;4875895;28;94694;-43
2024/01/15 11:31:40;;;;;;;97.03;54.67;;;14.10;58.90;;;;;;4874730;28;94282;-41
2024/01/15 11:34:07;;;;;;;94.57;54.03;;;14.10;58.50;;;;;;4879923;28;99356;-43
2024/01/15 11:36:51;;;;;;;98.70;55.10;;;14.10;58.70;;;;;;4880474;28;95441;-43
2024/01/15 11:39:34;;;;;;;97.20;54.65;;;14.20;58.60;;;;;;4883181;28;94544;-47
2024/01/15 11:42:03;;;;;;;97.38;54.60;;;14.20;58.60;;;;;;4882723;28;93455;-45
2024/01/15 11:44:29;;;;;;;106.82;61.05;;;14.30;58.20;;;;;;4879349;28;96561;-46
2024/01/15 11:47:02;;;;;;;109.85;64.55;;;14.30;58.40;;;;;;4873663;28;98656;-46
2024/01/15 11:50:02;;;;;;;104.13;61.47;;;14.30;58.30;;;;;;4881081;28;97134;-45
2024/01/15 11:52:35;;;;;;;105.43;59.85;;;14.30;58.30;;;;;;4880317;28;95291;-46
2024/01/15 11:55:07;;;;;;;100.95;58.38;;;14.30;58.10;;;;;;4882150;28;94851;-46
2024/01/15 11:57:38;;;;;;;101.82;58.50;;;14.40;58.10;;;;;;4878753;28;95379;-46
2024/01/15 12:00:06;;;;;;;101.00;57.45;;;14.40;57.90;;;;;;4884122;28;95081;-46
2024/01/15 12:02:32;;;;;;;97.28;56.83;;;14.60;57.70;;;;;;4891986;28;96042;-46
2024/01/15 12:04:58;;;;;;;99.57;56.97;;;14.60;57.50;;;;;;4880027;28;94401;-47
2024/01/15 12:07:23;;;;;;;98.15;56.65;;;14.80;57.40;;;;;;4879988;28;94009;-46
2024/01/15 12:09:49;;;;;;;100.75;56.55;;;14.90;57.00;;;;;;4883418;28;94195;-46
2024/01/15 12:12:27;;;;;;;97.97;55.42;;;15.00;56.90;;;;;;4882547;28;95056;-45
2024/01/15 12:14:53;;;;;;;100.18;55.75;;;15.00;56.30;;;;;;4882257;28;95878;-44
2024/01/15 12:17:18;;;;;;;97.78;54.97;;;15.10;56.60;;;;;;4875893;28;95545;-46
2024/01/15 12:19:44;;;;;;;98.43;54.90;;;15.10;56.40;;;;;;4879648;28;96530;-46
2024/01/15 12:22:10;;;;;;;101.18;56.78;;;15.00;56.00;;;;;;4875806;28;96084;-48
2024/01/15 12:24:38;;;;;;;97.65;55.42;;;15.10;56.30;;;;;;4881069;28;94381;-46